createdAt,value
2022-10-11T00:00:37.184Z,5.55
2022-10-11T00:03:39.581Z,5.93
2022-10-11T00:06:43.623Z,5.87
2022-10-11T00:09:46.819Z,5.65
2022-10-11T00:12:49.154Z,5.93
2022-10-11T00:15:51.497Z,5.57
2022-10-11T00:18:53.611Z,6.28
2022-10-11T00:21:56.026Z,6.10
2022-10-11T00:24:59.122Z,6.18
2022-10-11T00:28:01.579Z,5.85
2022-10-11T00:31:14.814Z,5.97
2022-10-11T00:34:18.115Z,6.05
2022-10-11T00:37:20.562Z,6.10
2022-10-11T00:40:22.904Z,6.12
2022-10-11T00:43:27.864Z,5.30
2022-10-11T00:46:32.064Z,5.93
2022-10-11T00:49:38.457Z,5.68
2022-10-11T00:52:43.202Z,5.72
2022-10-11T00:55:54.915Z,5.62
2022-10-11T00:58:58.831Z,5.45
2022-10-11T01:02:00.974Z,5.95
2022-10-11T01:05:28.845Z,6.53
2022-10-11T01:08:27.681Z,6.03
2022-10-11T01:11:31.143Z,5.60
2022-10-11T01:14:49.134Z,5.22
2022-10-11T01:18:07.995Z,5.75
2022-10-11T01:21:22.530Z,5.47
2022-10-11T01:24:41.442Z,5.20
2022-10-11T01:28:01.965Z,6.07
2022-10-11T01:31:12.889Z,5.43
2022-10-11T01:34:35.548Z,5.35
2022-10-11T01:37:43.967Z,5.32
2022-10-11T01:40:51.295Z,5.50
2022-10-11T01:43:59.298Z,5.40
2022-10-11T01:47:01.379Z,5.75
2022-10-11T01:50:04.033Z,6.05
2022-10-11T01:53:36.067Z,6.12
2022-10-11T01:56:57.056Z,6.28
2022-10-11T02:00:17.397Z,5.85
2022-10-11T02:03:31.993Z,6.22
2022-10-11T02:06:56.728Z,5.70
2022-10-11T02:10:21.264Z,6.07
2022-10-11T02:13:30.241Z,6.65
2022-10-11T02:16:39.706Z,6.15
2022-10-11T02:19:46.657Z,6.10
2022-10-11T02:22:53.567Z,5.80
2022-10-11T02:25:57.578Z,6.40
2022-10-11T02:29:04.551Z,6.12
2022-10-11T02:32:08.208Z,5.93
2022-10-11T02:35:11.749Z,5.68
2022-10-11T02:38:30.241Z,5.95
2022-10-11T02:41:38.426Z,5.97
2022-10-11T02:44:45.429Z,5.72
2022-10-11T02:47:48.262Z,5.72
2022-10-11T02:50:50.870Z,6.05
2022-10-11T02:53:53.554Z,5.72
2022-10-11T02:56:55.603Z,5.87
2022-10-11T02:59:57.939Z,5.72
2022-10-11T03:03:00.106Z,5.60
2022-10-11T03:06:04.337Z,5.55
2022-10-11T03:09:06.591Z,5.40
2022-10-11T03:12:08.948Z,5.82
2022-10-11T03:15:11.132Z,7.80
2022-10-11T03:18:13.458Z,6.62
2022-10-11T03:21:15.549Z,6.50
2022-10-11T03:24:17.958Z,6.65
2022-10-11T03:27:20.050Z,6.05
2022-10-11T03:30:22.413Z,7.00
2022-10-11T03:33:24.501Z,6.55
2022-10-11T03:36:26.831Z,6.97
2022-10-11T03:39:28.883Z,6.15
2022-10-11T03:42:31.223Z,6.55
2022-10-11T03:45:33.336Z,7.18
2022-10-11T03:48:35.775Z,6.95
2022-10-11T03:51:37.879Z,6.30
2022-10-11T03:54:40.267Z,7.05
2022-10-11T03:57:42.460Z,6.53
2022-10-11T04:00:44.774Z,6.07
2022-10-11T04:03:47.107Z,6.43
2022-10-11T04:06:49.169Z,6.45
2022-10-11T04:09:52.650Z,6.25
2022-10-11T04:12:54.693Z,7.20
2022-10-11T04:15:57.041Z,7.05
2022-10-11T04:18:59.235Z,6.62
2022-10-11T04:22:01.566Z,7.22
2022-10-11T04:25:04.223Z,6.50
2022-10-11T04:28:08.038Z,7.15
2022-10-11T04:31:10.202Z,6.75
2022-10-11T04:34:12.558Z,6.72
2022-10-11T04:37:14.637Z,7.28
2022-10-11T04:40:17.043Z,7.43
2022-10-11T04:43:19.355Z,7.15
2022-10-11T04:46:21.793Z,6.82
2022-10-11T04:49:24.353Z,7.00
2022-10-11T04:52:26.694Z,7.25
2022-10-11T04:55:29.517Z,6.97
2022-10-11T04:58:33.757Z,7.40
2022-10-11T05:01:35.919Z,7.28
2022-10-11T05:04:38.341Z,7.95
2022-10-11T05:07:40.398Z,7.20
2022-10-11T05:10:43.012Z,7.62
2022-10-11T05:13:48.628Z,7.55
2022-10-11T05:16:51.000Z,7.15
2022-10-11T05:19:53.049Z,6.97
2022-10-11T05:22:55.413Z,7.35
2022-10-11T05:25:58.075Z,6.95
2022-10-11T05:29:00.554Z,6.82
2022-10-11T05:32:02.702Z,6.57
2022-10-11T05:35:05.606Z,7.30
2022-10-11T05:38:08.280Z,6.25
2022-10-11T05:41:13.848Z,6.65
2022-10-11T05:44:15.949Z,6.85
2022-10-11T05:47:18.251Z,6.82
2022-10-11T05:50:24.152Z,7.18
2022-10-11T05:53:26.890Z,6.95
2022-10-11T05:56:28.952Z,6.93
2022-10-11T05:59:31.323Z,7.10
2022-10-11T06:02:34.020Z,6.87
2022-10-11T06:05:36.423Z,6.70
2022-10-11T06:08:38.531Z,7.12
2022-10-11T06:11:43.768Z,7.12
2022-10-11T06:14:45.905Z,7.25
2022-10-11T06:17:48.330Z,7.05
2022-10-11T06:20:50.397Z,6.60
2022-10-11T06:23:58.354Z,7.15
2022-10-11T06:27:03.195Z,7.65
2022-10-11T06:30:07.265Z,6.90
2022-10-11T06:33:09.381Z,6.78
2022-10-11T06:36:13.261Z,6.93
2022-10-11T06:39:15.361Z,7.15
2022-10-11T06:42:17.762Z,6.75
2022-10-11T06:45:19.885Z,6.35
2022-10-11T06:48:22.214Z,6.80
2022-10-11T06:51:25.160Z,6.32
2022-10-11T06:54:27.501Z,6.57
2022-10-11T06:57:29.758Z,6.18
2022-10-11T07:00:32.189Z,6.70
2022-10-11T07:03:35.058Z,6.35
2022-10-11T07:06:40.201Z,6.90
2022-10-11T07:09:42.324Z,6.30
2022-10-11T07:12:44.901Z,6.60
2022-10-11T07:15:46.971Z,6.62
2022-10-11T07:18:57.257Z,6.30
2022-10-11T07:22:01.860Z,6.05
2022-10-11T07:25:04.705Z,6.03
2022-10-11T07:28:06.773Z,5.72
2022-10-11T07:31:15.156Z,5.75
2022-10-11T07:34:18.049Z,6.25
2022-10-11T07:37:20.457Z,4.95
2022-10-11T07:40:22.565Z,6.50
2022-10-11T07:43:25.274Z,6.20
2022-10-11T07:46:27.446Z,6.18
2022-10-11T07:49:29.791Z,6.68
2022-10-11T07:52:31.896Z,6.87
2022-10-11T07:55:40.002Z,6.57
2022-10-11T07:58:42.667Z,6.87
2022-10-11T08:01:45.385Z,6.55
2022-10-11T08:04:47.829Z,7.05
2022-10-11T08:07:49.941Z,6.95
2022-10-11T08:10:52.406Z,7.60
2022-10-11T08:13:54.699Z,6.70
2022-10-11T08:16:57.190Z,6.82
2022-10-11T08:20:01.340Z,7.82
2022-10-11T08:23:03.994Z,7.12
2022-10-11T08:26:07.240Z,6.65
2022-10-11T08:29:10.157Z,7.22
2022-10-11T08:32:12.324Z,7.15
2022-10-11T08:35:14.800Z,7.57
2022-10-11T08:38:17.959Z,7.65
2022-10-11T08:41:32.086Z,7.53
2022-10-11T08:45:16.189Z,8.85
2022-10-11T08:48:31.376Z,8.30
2022-10-11T08:51:59.983Z,8.10
2022-10-11T08:55:07.881Z,8.55
2022-10-11T08:58:13.902Z,9.10
2022-10-11T09:01:23.754Z,9.32
2022-10-11T09:04:26.022Z,8.60
2022-10-11T09:07:37.416Z,9.30
2022-10-11T09:10:59.672Z,9.48
2022-10-11T09:14:06.670Z,10.23
2022-10-11T09:17:17.645Z,9.50
2022-10-11T09:20:37.095Z,8.63
2022-10-11T09:23:42.186Z,9.57
2022-10-11T09:27:01.449Z,9.57
2022-10-11T09:30:11.756Z,9.30
2022-10-11T09:33:28.353Z,9.82
2022-10-11T09:36:44.826Z,10.00
2022-10-11T09:40:11.718Z,9.85
2022-10-11T09:43:15.156Z,10.02
2022-10-11T09:46:32.494Z,12.93
2022-10-11T09:49:42.505Z,11.75
2022-10-11T09:52:53.660Z,11.85
2022-10-11T09:56:04.007Z,11.45
2022-10-11T09:59:27.211Z,11.63
2022-10-11T10:02:39.224Z,11.15
2022-10-11T10:05:41.664Z,10.30
2022-10-11T10:08:46.789Z,11.82
2022-10-11T10:11:49.355Z,13.30
2022-10-11T10:15:16.148Z,11.23
2022-10-11T10:18:23.640Z,10.45
2022-10-11T10:21:36.676Z,11.12
2022-10-11T10:24:41.544Z,11.65
2022-10-11T10:27:57.497Z,11.85
2022-10-11T10:30:59.873Z,12.20
2022-10-11T10:34:02.776Z,11.80
2022-10-11T10:37:28.066Z,11.65
2022-10-11T10:40:47.354Z,11.65
2022-10-11T10:44:00.165Z,12.55
2022-10-11T10:47:19.463Z,13.80
2022-10-11T10:50:55.738Z,12.18
2022-10-11T10:54:10.320Z,11.60
2022-10-11T10:57:48.098Z,11.60
2022-10-11T11:01:02.311Z,12.02
2022-10-11T11:04:14.631Z,11.93
2022-10-11T11:07:44.058Z,11.48
2022-10-11T11:11:22.043Z,12.17
2022-10-11T11:14:24.037Z,11.50
2022-10-11T11:17:49.645Z,12.70
2022-10-11T11:21:41.198Z,11.18
2022-10-11T11:24:49.870Z,12.68
2022-10-11T11:28:16.913Z,11.55
2022-10-11T11:31:39.002Z,11.43
2022-10-11T11:34:46.915Z,11.75
2022-10-11T11:37:58.567Z,12.15
2022-10-11T11:41:10.133Z,11.48
2022-10-11T11:44:32.009Z,12.00
2022-10-11T11:47:38.527Z,11.95
2022-10-11T11:50:45.890Z,12.82
2022-10-11T11:54:06.051Z,12.63
2022-10-11T11:57:17.409Z,11.80
2022-10-11T12:00:32.463Z,12.23
2022-10-11T12:03:41.744Z,12.70
2022-10-11T12:07:11.161Z,14.73
2022-10-11T12:10:25.178Z,13.30
2022-10-11T12:13:40.774Z,13.20
2022-10-11T12:17:10.578Z,13.10
2022-10-11T12:20:25.929Z,12.80
2022-10-11T12:23:28.240Z,12.80
2022-10-11T12:26:56.426Z,12.68
2022-10-11T12:29:58.799Z,13.10
2022-10-11T12:33:18.127Z,12.37
2022-10-11T12:36:52.978Z,13.87
2022-10-11T12:39:59.970Z,12.65
2022-10-11T12:43:14.207Z,13.23
2022-10-11T12:46:28.522Z,13.55
2022-10-11T12:49:33.913Z,13.85
2022-10-11T12:52:52.099Z,12.70
2022-10-11T12:56:00.866Z,12.95
2022-10-11T12:59:06.266Z,13.57
2022-10-11T13:02:36.241Z,13.70
2022-10-11T13:05:45.511Z,13.50
2022-10-11T13:08:54.680Z,13.98
2022-10-11T13:12:06.374Z,14.10
2022-10-11T13:15:14.742Z,12.98
2022-10-11T13:18:18.231Z,13.15
2022-10-11T13:21:26.950Z,12.88
2022-10-11T13:24:39.034Z,12.68
2022-10-11T13:27:41.702Z,12.95
2022-10-11T13:30:46.920Z,13.18
2022-10-11T13:33:54.801Z,13.55
2022-10-11T13:36:58.537Z,13.50
2022-10-11T13:40:00.952Z,13.57
2022-10-11T13:43:05.625Z,13.15
2022-10-11T13:46:17.363Z,12.85
2022-10-11T13:49:29.387Z,12.68
2022-10-11T13:52:32.316Z,12.57
2022-10-11T13:55:36.212Z,12.40
2022-10-11T13:58:46.691Z,13.80
2022-10-11T14:01:50.685Z,12.37
2022-10-11T14:04:53.480Z,12.10
2022-10-11T14:07:57.439Z,12.45
2022-10-11T14:11:05.932Z,12.32
2022-10-11T14:14:38.877Z,12.23
2022-10-11T14:17:44.098Z,12.85
2022-10-11T14:20:46.157Z,11.93
2022-10-11T14:23:52.342Z,11.90
2022-10-11T14:26:56.271Z,12.65
2022-10-11T14:30:25.012Z,12.82
2022-10-11T14:33:21.125Z,12.63
2022-10-11T14:36:24.023Z,12.55
2022-10-11T14:39:28.351Z,12.20
2022-10-11T14:42:30.683Z,12.88
2022-10-11T14:45:32.805Z,12.07
2022-10-11T14:48:54.410Z,11.77
2022-10-11T14:51:59.068Z,12.18
2022-10-11T14:55:01.884Z,12.13
2022-10-11T14:58:05.601Z,11.80
2022-10-11T15:01:12.715Z,11.63
2022-10-11T15:04:15.377Z,11.50
2022-10-11T15:07:17.741Z,12.43
2022-10-11T15:10:33.459Z,12.07
2022-10-11T15:13:36.070Z,11.45
2022-10-11T15:16:40.145Z,11.32
2022-10-11T15:19:42.497Z,10.30
2022-10-11T15:22:44.588Z,11.40
2022-10-11T15:25:47.167Z,11.93
2022-10-11T15:28:50.470Z,11.07
2022-10-11T15:31:52.821Z,11.50
2022-10-11T15:34:54.898Z,11.15
2022-10-11T15:37:59.516Z,11.43
2022-10-11T15:41:01.641Z,11.10
2022-10-11T15:44:04.047Z,10.73
2022-10-11T15:47:06.138Z,11.85
2022-10-11T15:50:24.082Z,11.52
2022-10-11T15:53:30.889Z,12.07
2022-10-11T15:56:33.959Z,11.02
2022-10-11T15:59:36.162Z,12.05
2022-10-11T16:02:39.197Z,11.85
2022-10-11T16:05:42.182Z,12.88
2022-10-11T16:08:44.917Z,11.95
2022-10-11T16:11:47.274Z,13.18
2022-10-11T16:14:49.358Z,13.10
2022-10-11T16:17:51.820Z,13.70
2022-10-11T16:20:54.118Z,12.05
2022-10-11T16:23:56.470Z,13.00
2022-10-11T16:26:58.562Z,13.23
2022-10-11T16:30:01.170Z,12.80
2022-10-11T16:33:03.342Z,12.43
2022-10-11T16:36:26.438Z,12.75
2022-10-11T16:39:28.611Z,13.43
2022-10-11T16:42:31.178Z,13.62
2022-10-11T16:45:33.948Z,13.52
2022-10-11T16:48:36.358Z,13.05
2022-10-11T16:51:38.455Z,13.45
2022-10-11T16:54:47.504Z,13.70
2022-10-11T16:57:49.590Z,14.38
2022-10-11T17:00:52.119Z,15.40
2022-10-11T17:03:55.609Z,15.57
2022-10-11T17:06:58.193Z,16.15
2022-10-11T17:10:01.085Z,15.30
2022-10-11T17:13:03.425Z,16.40
2022-10-11T17:16:06.140Z,16.20
2022-10-11T17:19:14.150Z,15.95
2022-10-11T17:22:18.626Z,16.75
2022-10-11T17:25:21.482Z,15.75
2022-10-11T17:28:23.819Z,15.82
2022-10-11T17:31:27.955Z,16.02
2022-10-11T17:34:30.457Z,15.70
2022-10-11T17:37:34.124Z,16.17
2022-10-11T17:40:36.205Z,16.37
2022-10-11T17:43:39.219Z,16.00
2022-10-11T17:46:41.275Z,17.40
2022-10-11T17:49:43.642Z,16.35
2022-10-11T17:52:45.889Z,16.08
2022-10-11T17:55:53.341Z,17.30
2022-10-11T17:58:57.197Z,17.08
2022-10-11T18:01:59.566Z,17.58
2022-10-11T18:05:01.888Z,17.80
2022-10-11T18:08:03.999Z,18.42
2022-10-11T18:11:11.881Z,20.45
2022-10-11T18:14:13.966Z,19.33
2022-10-11T18:17:16.878Z,20.37
2022-10-11T18:20:18.996Z,20.40
2022-10-11T18:23:21.363Z,18.83
2022-10-11T18:26:27.991Z,19.52
2022-10-11T18:29:32.755Z,20.10
2022-10-11T18:32:35.343Z,18.75
2022-10-11T18:35:38.177Z,19.27
2022-10-11T18:38:46.027Z,18.67
2022-10-11T18:41:48.832Z,20.33
2022-10-11T18:44:50.911Z,20.48
2022-10-11T18:47:53.245Z,19.60
2022-10-11T18:51:12.334Z,21.55
2022-10-11T18:54:18.429Z,21.42
2022-10-11T18:57:24.273Z,22.48
2022-10-11T19:00:41.965Z,21.17
2022-10-11T19:03:46.018Z,21.17
2022-10-11T19:06:49.388Z,21.98
2022-10-11T19:09:51.520Z,21.15
2022-10-11T19:12:53.932Z,22.62
2022-10-11T19:15:56.031Z,20.90
2022-10-11T19:18:59.079Z,22.37
2022-10-11T19:22:03.271Z,22.33
2022-10-11T19:25:06.231Z,22.70
2022-10-11T19:28:12.332Z,23.38
2022-10-11T19:31:17.328Z,22.27
2022-10-11T19:34:20.299Z,22.48
2022-10-11T19:37:22.863Z,22.90
2022-10-11T19:40:24.985Z,23.60
2022-10-11T19:43:27.633Z,22.67
2022-10-11T19:46:50.386Z,23.85
2022-10-11T19:49:52.136Z,23.10
2022-10-11T19:52:54.221Z,23.67
2022-10-11T19:56:00.264Z,23.50
2022-10-11T19:59:02.970Z,23.45
2022-10-11T20:02:05.405Z,24.25
2022-10-11T20:05:08.097Z,22.62
2022-10-11T20:08:10.185Z,20.90
2022-10-11T20:11:13.158Z,21.55
2022-10-11T20:14:15.232Z,22.00
2022-10-11T20:17:17.622Z,21.80
2022-10-11T20:20:19.949Z,20.27
2022-10-11T20:23:27.361Z,20.67
2022-10-11T20:26:30.763Z,20.70
2022-10-11T20:29:33.178Z,18.10
2022-10-11T20:32:35.328Z,19.25
2022-10-11T20:35:37.670Z,19.35
2022-10-11T20:38:42.558Z,19.50
2022-10-11T20:41:44.906Z,20.17
2022-10-11T20:44:48.578Z,21.10
2022-10-11T20:47:53.023Z,20.83
2022-10-11T20:50:55.251Z,22.50
2022-10-11T20:53:58.887Z,22.35
2022-10-11T20:57:00.946Z,22.40
2022-10-11T21:00:04.626Z,22.83
2022-10-11T21:03:07.006Z,22.70
2022-10-11T21:06:09.671Z,22.80
2022-10-11T21:09:14.063Z,22.83
2022-10-11T21:12:18.777Z,22.35
2022-10-11T21:15:20.852Z,22.77
2022-10-11T21:18:23.203Z,23.02
2022-10-11T21:21:26.311Z,22.70
2022-10-11T21:24:28.645Z,22.30
2022-10-11T21:27:30.799Z,22.65
2022-10-11T21:30:34.055Z,24.15
2022-10-11T21:33:36.695Z,22.73
2022-10-11T21:36:39.049Z,20.75
2022-10-11T21:39:41.175Z,22.95
2022-10-11T21:42:43.550Z,22.42
2022-10-11T21:45:46.059Z,22.92
2022-10-11T21:48:50.033Z,22.62
2022-10-11T21:51:52.097Z,21.55
2022-10-11T21:54:54.474Z,21.33
2022-10-11T21:57:56.530Z,21.42
2022-10-11T22:00:59.069Z,20.88
2022-10-11T22:04:01.417Z,21.37
2022-10-11T22:07:03.489Z,20.88
2022-10-11T22:10:06.159Z,20.30
2022-10-11T22:13:08.554Z,19.65
2022-10-11T22:16:12.587Z,20.10
2022-10-11T22:19:14.666Z,19.67
2022-10-11T22:22:17.046Z,18.62
2022-10-11T22:25:19.236Z,18.23
2022-10-11T22:28:21.617Z,17.52
2022-10-11T22:31:24.014Z,17.10
2022-10-11T22:34:30.786Z,17.33
2022-10-11T22:37:33.914Z,17.48
2022-10-11T22:40:39.740Z,16.83
2022-10-11T22:43:41.856Z,16.65
2022-10-11T22:46:44.203Z,16.45
2022-10-11T22:49:46.287Z,16.77
2022-10-11T22:52:48.607Z,16.15
2022-10-11T22:55:50.981Z,16.25
2022-10-11T22:58:53.329Z,16.02
2022-10-11T23:01:55.415Z,15.75
2022-10-11T23:04:58.273Z,15.15
2022-10-11T23:08:00.462Z,14.80
2022-10-11T23:11:07.078Z,15.20
2022-10-11T23:14:09.290Z,14.57
2022-10-11T23:17:11.649Z,15.70
2022-10-11T23:20:13.901Z,14.80
2022-10-11T23:23:16.237Z,14.05
2022-10-11T23:26:18.286Z,15.07
2022-10-11T23:29:20.617Z,14.77
2022-10-11T23:32:22.675Z,15.73
2022-10-11T23:35:25.190Z,15.20
2022-10-11T23:38:27.485Z,15.40
2022-10-11T23:41:30.471Z,15.82
2022-10-11T23:44:32.564Z,16.15
2022-10-11T23:47:35.303Z,14.77
2022-10-11T23:50:37.625Z,15.50
2022-10-11T23:53:39.968Z,15.80
2022-10-11T23:56:42.026Z,15.55
2022-10-11T23:59:44.397Z,15.77
